Shedd, OR (97377)

8:30 PM PST on February 07, 2016 (GMT -0800)
Thompson's Mills | | Change Station
CLOSE
Current Station
Personal Weather Station
Location: Shedd, OR
Elevation: 270 ft
Nearby Weather Stations

Elev 270 ft 44.46 °N, 123.08 °W | Updated 36 seconds ago

Clear
Clear
44.3 °F
Feels Like 44 °F
N
0.0
Wind Variable Wind from WNW
Gusts 2.0 mph

Today
High -- | Low -- °F
--% Chance of Precip.
Yesterday
High -- | Low -- °F
Precip. -- in
Pressure 30.45 in
Visibility 5.0 miles
Clouds Clear
Windchill 44 °F
Dew Point 44 °F
Humidity 98%
Rainfall 0.00 in
Snow Depth Not available.
7:24 AM 5:29 PM
Waning Crescent, 0% visible
METAR KCVO 080415Z 00000KT 5SM CLR 07/06 A3045 RMK AO1
Pressure 30.45 in
Visibility 5.0 miles
Clouds Clear
Windchill 44 °F
Dew Point 44 °F
Humidity 98%
Rainfall 0.00 in
Snow Depth Not available.
7:24 AM 5:29 PM
Waning Crescent, 0% visible
METAR KCVO 080415Z 00000KT 5SM CLR 07/06 A3045 RMK AO1

10-Day Weather Forecast

Almanac

Astronomy

Feb. 07, 2016 Rise Set
Actual Time
Civil Twilight
Nautical Twilight
Astronomical Twilight
Moon
Length of Visible Light
Length of Day
Tomorrow will be .
, % of the Moon is Illuminated

Today's Extremes

State Highs State Lows

Community

WunderPhotos

Upload Photos

1,891,379 photos uploaded!

WunderBlog® & News

Nearby

Air Quality

  Air Quality AQ Index Pollutant
Not available.

Snow Depth

Station Depth Elevation

Earthquake Activity

City Distance Mag. Time & Date
Minimum magnitude displayed is 2.5.

Coastal Water Temperatures

Place Temperature

Stations

Nearby Weather Stations

Station Location Temp. Windchill Dew Point Humidity Wind Precip. Elev Updated Type
                   

Watches & Warnings

There are currently no watches in effect.